createdAt,value
2022-12-07T00:01:29.123Z,72.60
2022-12-07T00:04:01.836Z,72.60
2022-12-07T00:06:28.774Z,72.50
2022-12-07T00:08:55.567Z,72.30
2022-12-07T00:11:23.696Z,72.20
2022-12-07T00:13:59.531Z,71.90
2022-12-07T00:16:28.620Z,71.70
2022-12-07T00:18:56.077Z,71.70
2022-12-07T00:21:26.073Z,71.80
2022-12-07T00:23:55.206Z,71.70
2022-12-07T00:26:25.520Z,71.70
2022-12-07T00:28:57.654Z,71.80
2022-12-07T00:31:27.508Z,71.80
2022-12-07T00:33:54.697Z,72.00
2022-12-07T00:36:26.924Z,72.00
2022-12-07T00:38:55.601Z,72.30
2022-12-07T00:41:25.941Z,72.60
2022-12-07T00:43:53.199Z,72.60
2022-12-07T00:46:21.174Z,72.70
2022-12-07T00:48:49.180Z,72.60
2022-12-07T00:51:18.383Z,72.60
2022-12-07T00:53:45.364Z,72.50
2022-12-07T00:56:17.508Z,72.50
2022-12-07T00:58:44.664Z,72.40
2022-12-07T01:01:12.153Z,72.40
2022-12-07T01:03:39.631Z,72.40
2022-12-07T01:06:07.075Z,72.30
2022-12-07T01:08:34.816Z,72.20
2022-12-07T01:11:07.900Z,72.20
2022-12-07T01:13:36.077Z,72.40
2022-12-07T01:16:06.091Z,72.40
2022-12-07T01:18:36.471Z,72.50
2022-12-07T01:21:06.190Z,72.60
2022-12-07T01:23:34.036Z,72.60
2022-12-07T01:26:03.574Z,72.70
2022-12-07T01:28:30.797Z,72.60
2022-12-07T01:31:02.923Z,72.60
2022-12-07T01:33:34.464Z,72.60
2022-12-07T01:36:06.628Z,72.50
2022-12-07T01:38:34.316Z,72.50
2022-12-07T01:41:02.979Z,72.50
2022-12-07T01:43:31.515Z,72.60
2022-12-07T01:45:59.269Z,72.40
2022-12-07T01:48:31.617Z,72.50
2022-12-07T01:51:03.952Z,72.30
2022-12-07T01:53:33.324Z,72.30
2022-12-07T01:56:01.263Z,72.00
2022-12-07T01:58:29.253Z,72.10
2022-12-07T02:00:56.196Z,72.00
2022-12-07T02:03:41.026Z,72.00
2022-12-07T02:06:10.541Z,72.20
2022-12-07T02:08:37.461Z,72.10
2022-12-07T02:11:06.290Z,72.10
2022-12-07T02:13:36.673Z,72.30
2022-12-07T02:16:12.499Z,72.20
2022-12-07T02:19:23.875Z,72.20
2022-12-07T02:22:20.418Z,72.40
2022-12-07T02:24:54.176Z,72.40
2022-12-07T02:27:51.455Z,72.50
2022-12-07T02:30:21.212Z,72.50
2022-12-07T02:33:12.945Z,72.50
2022-12-07T02:36:03.159Z,72.60
2022-12-07T02:38:36.785Z,72.50
2022-12-07T02:41:32.552Z,72.40
2022-12-07T02:44:07.403Z,72.30
2022-12-07T02:46:40.635Z,72.50
2022-12-07T02:49:09.405Z,72.60
2022-12-07T02:51:41.967Z,72.70
2022-12-07T02:54:17.277Z,72.80
2022-12-07T02:56:51.079Z,72.60
2022-12-07T02:59:35.994Z,72.60
2022-12-07T03:02:24.042Z,72.80
2022-12-07T03:05:05.948Z,72.90
2022-12-07T03:07:41.912Z,72.90
2022-12-07T03:10:15.873Z,73.00
2022-12-07T03:12:48.543Z,73.00
2022-12-07T03:15:43.103Z,72.90
2022-12-07T03:18:12.316Z,72.80
2022-12-07T03:20:42.192Z,72.60
2022-12-07T03:23:10.932Z,72.50
2022-12-07T03:25:47.962Z,72.50
2022-12-07T03:28:18.395Z,72.70
2022-12-07T03:31:00.406Z,72.80
2022-12-07T03:33:37.876Z,72.60
2022-12-07T03:36:41.202Z,72.70
2022-12-07T03:39:16.821Z,72.70
2022-12-07T03:41:45.483Z,72.70
2022-12-07T03:44:13.763Z,72.70
2022-12-07T03:46:52.581Z,72.70
2022-12-07T03:49:38.402Z,72.70
2022-12-07T03:52:14.265Z,72.70
2022-12-07T03:54:47.705Z,72.60
2022-12-07T03:57:15.422Z,72.60
2022-12-07T03:59:43.935Z,72.60
2022-12-07T04:02:13.996Z,72.50
2022-12-07T04:04:41.129Z,72.50
2022-12-07T04:07:07.960Z,72.30
2022-12-07T04:09:34.811Z,72.20
2022-12-07T04:12:01.716Z,72.10
2022-12-07T04:14:28.529Z,72.00
2022-12-07T04:16:57.568Z,72.10
2022-12-07T04:19:27.023Z,72.00
2022-12-07T04:21:54.175Z,72.10
2022-12-07T04:24:21.268Z,72.20
2022-12-07T04:26:48.849Z,72.10
2022-12-07T04:29:16.405Z,72.30
2022-12-07T04:31:43.775Z,72.30
2022-12-07T04:34:11.587Z,72.30
2022-12-07T04:36:39.181Z,72.20
2022-12-07T04:39:08.543Z,72.20
2022-12-07T04:41:35.678Z,72.20
2022-12-07T04:44:05.222Z,72.10
2022-12-07T04:46:33.284Z,72.10
2022-12-07T04:49:00.732Z,72.40
2022-12-07T04:51:29.820Z,72.40
2022-12-07T04:53:57.440Z,72.40
2022-12-07T04:56:25.500Z,72.40
2022-12-07T04:58:54.327Z,72.30
2022-12-07T05:01:22.180Z,72.20
2022-12-07T05:03:49.365Z,72.10
2022-12-07T05:06:16.345Z,72.20
2022-12-07T05:08:43.973Z,72.10
2022-12-07T05:11:31.835Z,72.10
2022-12-07T05:13:58.753Z,72.00
2022-12-07T05:16:25.753Z,71.90
2022-12-07T05:18:52.729Z,71.90
2022-12-07T05:21:19.680Z,72.00
2022-12-07T05:23:46.569Z,72.20
2022-12-07T05:26:13.432Z,72.30
2022-12-07T05:28:40.305Z,72.30
2022-12-07T05:31:07.578Z,72.80
2022-12-07T05:33:34.516Z,72.20
2022-12-07T05:36:06.423Z,72.20
2022-12-07T05:38:33.946Z,72.30
2022-12-07T05:41:05.889Z,72.30
2022-12-07T05:43:33.190Z,72.20
2022-12-07T05:46:00.215Z,72.30
2022-12-07T05:48:27.659Z,72.30
2022-12-07T05:50:54.588Z,72.40
2022-12-07T05:53:23.377Z,72.50
2022-12-07T05:55:50.433Z,72.40
2022-12-07T05:58:40.186Z,72.50
2022-12-07T06:01:07.061Z,72.30
2022-12-07T06:03:33.977Z,72.00
2022-12-07T06:06:00.911Z,72.10
2022-12-07T06:08:27.866Z,72.10
2022-12-07T06:11:14.676Z,72.20
2022-12-07T06:13:47.033Z,72.10
2022-12-07T06:16:14.356Z,72.20
2022-12-07T06:18:41.285Z,72.20
2022-12-07T06:21:08.169Z,72.10
2022-12-07T06:23:34.997Z,72.20
2022-12-07T06:26:01.853Z,72.10
2022-12-07T06:28:28.774Z,72.00
2022-12-07T06:31:02.765Z,72.10
2022-12-07T06:33:30.005Z,72.00
2022-12-07T06:35:57.065Z,72.00
2022-12-07T06:38:23.880Z,71.70
2022-12-07T06:40:50.720Z,71.70
2022-12-07T06:43:17.583Z,71.90
2022-12-07T06:45:44.504Z,72.10
2022-12-07T06:48:11.560Z,72.10
2022-12-07T06:50:38.820Z,72.20
2022-12-07T06:53:05.617Z,72.20
2022-12-07T06:55:32.780Z,72.40
2022-12-07T06:57:59.653Z,72.30
2022-12-07T07:00:26.573Z,72.30
2022-12-07T07:02:53.505Z,72.00
2022-12-07T07:05:22.798Z,72.00
2022-12-07T07:08:20.735Z,72.20
2022-12-07T07:10:38.005Z,72.30
2022-12-07T07:13:05.433Z,72.20
2022-12-07T07:15:32.336Z,72.30
2022-12-07T07:18:04.458Z,72.30
2022-12-07T07:20:34.320Z,72.50
2022-12-07T07:23:01.190Z,72.50
2022-12-07T07:25:27.978Z,72.50
2022-12-07T07:27:54.851Z,72.40
2022-12-07T07:30:21.745Z,72.30
2022-12-07T07:32:48.638Z,72.10
2022-12-07T07:35:15.588Z,71.90
2022-12-07T07:37:42.956Z,71.80
2022-12-07T07:40:10.716Z,71.80
2022-12-07T07:42:37.549Z,71.90
2022-12-07T07:45:05.581Z,71.80
2022-12-07T07:47:32.445Z,71.70
2022-12-07T07:49:59.393Z,71.80
2022-12-07T07:52:26.994Z,71.80
2022-12-07T07:54:54.003Z,71.90
2022-12-07T07:57:20.845Z,72.10
2022-12-07T07:59:47.693Z,72.20
2022-12-07T08:02:19.263Z,72.40
2022-12-07T08:04:46.931Z,72.40
2022-12-07T08:07:15.172Z,72.60
2022-12-07T08:09:42.812Z,72.70
2022-12-07T08:12:09.684Z,72.70
2022-12-07T08:14:36.664Z,73.00
2022-12-07T08:17:03.511Z,73.00
2022-12-07T08:19:30.518Z,72.90
2022-12-07T08:21:57.642Z,73.00
2022-12-07T08:24:26.041Z,72.90
2022-12-07T08:26:53.548Z,72.90
2022-12-07T08:29:20.576Z,72.90
2022-12-07T08:31:47.859Z,72.70
2022-12-07T08:34:15.104Z,72.70
2022-12-07T08:36:42.077Z,72.70
2022-12-07T08:39:30.844Z,72.60
2022-12-07T08:41:55.952Z,72.60
2022-12-07T08:44:22.981Z,72.50
2022-12-07T08:46:59.981Z,72.30
2022-12-07T08:49:40.596Z,72.30
2022-12-07T08:52:07.511Z,72.40
2022-12-07T08:54:37.878Z,72.40
2022-12-07T08:57:05.768Z,72.50
2022-12-07T08:59:34.694Z,72.40
2022-12-07T09:02:01.654Z,72.40
2022-12-07T09:04:28.692Z,72.50
2022-12-07T09:06:56.773Z,72.40
2022-12-07T09:09:23.588Z,72.30
2022-12-07T09:11:50.406Z,72.20
2022-12-07T09:14:18.311Z,72.30
2022-12-07T09:16:45.100Z,72.30
2022-12-07T09:19:11.939Z,72.30
2022-12-07T09:21:38.929Z,72.50
2022-12-07T09:24:06.022Z,72.50
2022-12-07T09:26:32.970Z,72.80
2022-12-07T09:28:59.824Z,72.20
2022-12-07T09:31:27.461Z,72.30
2022-12-07T09:33:59.251Z,72.30
2022-12-07T09:36:27.374Z,72.30
2022-12-07T09:38:54.186Z,72.30
2022-12-07T09:41:23.400Z,72.30
2022-12-07T09:43:51.112Z,72.30
2022-12-07T09:46:20.383Z,72.30
2022-12-07T09:48:48.702Z,72.40
2022-12-07T09:51:25.625Z,72.40
2022-12-07T09:53:55.298Z,72.30
2022-12-07T09:56:23.596Z,72.40
2022-12-07T09:58:52.981Z,72.50
2022-12-07T10:01:22.595Z,72.60
2022-12-07T10:04:16.418Z,72.40
2022-12-07T10:06:43.637Z,72.30
2022-12-07T10:09:12.769Z,72.20
2022-12-07T10:12:03.981Z,72.20
2022-12-07T10:15:05.662Z,72.10
2022-12-07T10:17:42.251Z,72.20
2022-12-07T10:20:14.164Z,72.20
2022-12-07T10:22:55.078Z,72.10
2022-12-07T10:25:23.326Z,71.80
2022-12-07T10:28:04.261Z,71.70
2022-12-07T10:30:32.651Z,71.60
2022-12-07T10:32:59.595Z,71.60
2022-12-07T10:35:29.720Z,71.40
2022-12-07T10:37:59.448Z,71.40
2022-12-07T10:40:35.149Z,71.30
2022-12-07T10:43:20.841Z,71.30
2022-12-07T10:46:14.728Z,71.30
2022-12-07T10:48:51.026Z,71.40
2022-12-07T10:51:45.680Z,71.50
2022-12-07T10:54:22.931Z,71.80
2022-12-07T10:57:24.833Z,71.40
2022-12-07T11:00:16.863Z,71.10
2022-12-07T11:03:28.275Z,71.50
2022-12-07T11:06:07.418Z,71.10
2022-12-07T11:08:50.328Z,71.20
2022-12-07T11:11:25.665Z,71.20
2022-12-07T11:14:17.114Z,71.20
2022-12-07T11:16:43.983Z,71.20
2022-12-07T11:19:32.373Z,71.40
2022-12-07T11:22:04.231Z,71.50
2022-12-07T11:25:05.890Z,71.60
2022-12-07T11:27:48.977Z,71.60
2022-12-07T11:30:29.262Z,71.30
2022-12-07T11:33:03.965Z,70.80
2022-12-07T11:35:44.128Z,70.80
2022-12-07T11:38:28.041Z,70.30
2022-12-07T11:41:14.156Z,70.50
2022-12-07T11:43:52.308Z,70.50
2022-12-07T11:46:19.570Z,69.30
2022-12-07T11:49:08.631Z,69.60
2022-12-07T11:51:38.964Z,69.90
2022-12-07T11:54:24.935Z,70.30
2022-12-07T11:56:54.148Z,70.50
2022-12-07T11:59:25.258Z,68.20
2022-12-07T12:01:57.378Z,68.20
2022-12-07T12:04:30.685Z,67.90
2022-12-07T12:17:24.183Z,66.10
2022-12-07T12:20:15.103Z,66.00
2022-12-07T12:22:46.458Z,64.30
2022-12-07T12:25:24.685Z,63.70
2022-12-07T12:27:53.243Z,63.90
2022-12-07T12:30:40.199Z,63.70
2022-12-07T12:33:30.369Z,63.40
2022-12-07T12:36:16.519Z,63.80
2022-12-07T12:39:08.443Z,63.70
2022-12-07T12:41:46.896Z,63.30
2022-12-07T12:44:16.784Z,64.00
2022-12-07T12:46:50.722Z,62.80
2022-12-07T12:49:17.732Z,63.70
2022-12-07T12:51:52.615Z,63.70
2022-12-07T12:54:19.425Z,64.20
2022-12-07T12:57:20.396Z,64.10
2022-12-07T12:59:53.031Z,64.20
2022-12-07T13:02:36.093Z,63.50
2022-12-07T13:05:04.685Z,64.30
2022-12-07T13:07:52.859Z,64.60
2022-12-07T13:10:29.715Z,64.60
2022-12-07T13:13:18.979Z,64.50
2022-12-07T13:15:55.395Z,64.90
2022-12-07T13:18:33.901Z,63.50
2022-12-07T13:21:10.493Z,63.60
2022-12-07T13:23:46.390Z,64.10
2022-12-07T13:26:31.265Z,64.40
2022-12-07T13:29:21.815Z,64.40
2022-12-07T13:31:52.338Z,63.80
2022-12-07T13:34:42.726Z,63.40
2022-12-07T13:37:16.872Z,63.50
2022-12-07T13:40:20.365Z,64.00
2022-12-07T13:42:47.394Z,63.90
2022-12-07T13:45:56.507Z,64.10
2022-12-07T13:48:36.689Z,62.90
2022-12-07T13:51:05.229Z,63.40
2022-12-07T13:53:32.197Z,63.70
2022-12-07T13:56:01.149Z,62.60
2022-12-07T13:58:32.627Z,62.50
2022-12-07T14:01:00.465Z,62.90
2022-12-07T14:03:37.079Z,62.10
2022-12-07T14:06:29.402Z,61.90
2022-12-07T14:09:19.988Z,62.30
2022-12-07T14:11:48.831Z,62.30
2022-12-07T14:14:19.982Z,61.90
2022-12-07T14:16:57.892Z,61.10
2022-12-07T14:19:48.567Z,60.60
2022-12-07T14:22:31.019Z,60.70
2022-12-07T14:25:23.243Z,60.70
2022-12-07T14:28:02.020Z,60.90
2022-12-07T14:30:35.079Z,60.80
2022-12-07T14:33:06.582Z,60.80
2022-12-07T14:35:34.078Z,60.40
2022-12-07T14:38:01.041Z,60.80
2022-12-07T14:40:30.142Z,61.30
2022-12-07T14:43:07.778Z,61.10
2022-12-07T14:45:34.566Z,60.20
2022-12-07T14:53:49.932Z,61.40
2022-12-07T14:56:20.310Z,61.40
2022-12-07T14:58:49.196Z,62.00
2022-12-07T15:01:16.060Z,62.30
2022-12-07T15:03:42.954Z,62.60
2022-12-07T15:06:15.802Z,62.30
2022-12-07T15:08:42.953Z,62.60
2022-12-07T15:11:15.016Z,62.70
2022-12-07T15:14:00.235Z,62.80
2022-12-07T15:16:28.744Z,62.60
2022-12-07T15:19:26.743Z,62.40
2022-12-07T15:21:44.769Z,63.00
2022-12-07T15:24:12.891Z,63.20
2022-12-07T15:26:41.035Z,63.30
2022-12-07T15:29:09.073Z,62.80
2022-12-07T15:31:55.174Z,62.70
2022-12-07T15:34:34.721Z,63.30
2022-12-07T15:37:06.600Z,63.40
2022-12-07T15:39:33.657Z,63.70
2022-12-07T15:42:00.432Z,63.70
2022-12-07T15:44:45.964Z,63.70
2022-12-07T15:47:12.828Z,64.00
2022-12-07T15:49:39.681Z,63.90
2022-12-07T15:52:06.610Z,63.40
2022-12-07T15:54:33.879Z,63.50
2022-12-07T15:57:01.052Z,63.90
2022-12-07T15:59:29.506Z,63.50
2022-12-07T16:01:57.281Z,63.60
2022-12-07T16:04:24.124Z,63.00
2022-12-07T16:06:52.113Z,63.00
2022-12-07T16:09:20.082Z,62.30
2022-12-07T16:11:46.972Z,62.40
2022-12-07T16:14:14.201Z,62.40
2022-12-07T16:16:41.430Z,62.70
2022-12-07T16:19:09.278Z,61.80
2022-12-07T16:21:36.899Z,62.30
2022-12-07T16:24:04.853Z,62.40
2022-12-07T16:26:31.705Z,61.70
2022-12-07T16:28:59.137Z,61.80
2022-12-07T16:31:27.933Z,61.80
2022-12-07T16:33:57.167Z,61.70
2022-12-07T16:36:55.188Z,61.60
2022-12-07T16:39:13.233Z,62.20
2022-12-07T16:41:40.207Z,61.80
2022-12-07T16:44:10.847Z,61.20
2022-12-07T16:46:37.851Z,61.00
2022-12-07T16:49:05.355Z,60.40
2022-12-07T16:51:32.676Z,61.10
2022-12-07T16:53:59.898Z,61.00
2022-12-07T16:56:27.855Z,60.60
2022-12-07T16:58:55.795Z,60.70
2022-12-07T17:01:23.847Z,61.60
2022-12-07T17:03:51.441Z,61.90
2022-12-07T17:06:24.023Z,62.20
2022-12-07T17:08:51.937Z,61.70
2022-12-07T17:11:21.686Z,62.00
2022-12-07T17:14:07.711Z,61.90
2022-12-07T17:16:36.031Z,62.10
2022-12-07T17:19:11.186Z,62.50
2022-12-07T17:21:38.077Z,62.50
2022-12-07T17:24:08.181Z,62.40
2022-12-07T17:26:36.035Z,62.70
2022-12-07T17:29:07.154Z,62.50
2022-12-07T17:31:34.646Z,63.10
2022-12-07T17:34:02.116Z,63.30
2022-12-07T17:36:31.273Z,63.50
2022-12-07T17:38:58.560Z,63.50
2022-12-07T17:41:46.427Z,63.80
2022-12-07T17:44:16.703Z,63.80
2022-12-07T17:46:44.760Z,64.10
2022-12-07T17:49:12.146Z,64.00
2022-12-07T17:51:57.821Z,63.80
2022-12-07T17:54:24.904Z,64.00
2022-12-07T17:56:52.008Z,64.00
2022-12-07T17:59:19.106Z,64.10
2022-12-07T18:01:46.481Z,64.70
2022-12-07T18:04:13.446Z,64.30
2022-12-07T18:06:40.622Z,64.20
2022-12-07T18:09:08.537Z,64.50
2022-12-07T18:11:35.482Z,64.70
2022-12-07T18:14:03.393Z,64.80
2022-12-07T18:16:33.019Z,64.80
2022-12-07T18:19:01.055Z,64.90
2022-12-07T18:21:30.952Z,65.30
2022-12-07T18:24:02.405Z,64.90
2022-12-07T18:26:32.367Z,65.10
2022-12-07T18:29:00.549Z,65.10
2022-12-07T18:31:28.523Z,65.20
2022-12-07T18:33:58.597Z,65.20
2022-12-07T18:36:25.515Z,64.90
2022-12-07T18:38:52.543Z,64.90
2022-12-07T18:41:20.439Z,65.20
2022-12-07T18:43:48.132Z,65.00
2022-12-07T18:46:20.490Z,64.80
2022-12-07T18:48:49.413Z,65.30
2022-12-07T18:51:17.088Z,65.10
2022-12-07T18:53:44.144Z,65.70
2022-12-07T18:56:17.409Z,65.20
2022-12-07T18:59:07.077Z,65.40
2022-12-07T19:01:34.961Z,65.70
2022-12-07T19:04:02.187Z,65.90
2022-12-07T19:06:29.800Z,66.10
2022-12-07T19:08:57.098Z,66.10
2022-12-07T19:11:46.039Z,66.30
2022-12-07T19:14:14.070Z,66.50
2022-12-07T19:16:45.308Z,66.60
2022-12-07T19:19:12.290Z,66.50
2022-12-07T19:21:39.092Z,66.50
2022-12-07T19:24:07.143Z,66.60
2022-12-07T19:26:34.101Z,66.60
2022-12-07T19:29:01.081Z,66.60
2022-12-07T19:31:27.959Z,66.50
2022-12-07T19:33:55.131Z,66.60
2022-12-07T19:36:22.009Z,66.70
2022-12-07T19:38:50.465Z,66.70
2022-12-07T19:41:36.131Z,67.00
2022-12-07T19:44:06.005Z,67.20
2022-12-07T19:46:32.901Z,67.20
2022-12-07T19:49:00.789Z,67.10
2022-12-07T19:51:28.923Z,67.10
2022-12-07T19:53:58.090Z,67.30
2022-12-07T19:56:25.681Z,67.50
2022-12-07T19:58:53.095Z,67.50
2022-12-07T20:01:20.361Z,67.30
2022-12-07T20:03:47.459Z,67.30
2022-12-07T20:06:17.737Z,67.50
2022-12-07T20:08:46.443Z,67.30
2022-12-07T20:11:32.952Z,67.10
2022-12-07T20:13:59.896Z,67.20
2022-12-07T20:16:26.791Z,67.00
2022-12-07T20:18:57.800Z,66.80
2022-12-07T20:21:25.194Z,66.80
2022-12-07T20:23:52.968Z,66.40
2022-12-07T20:26:20.449Z,66.10
2022-12-07T20:28:47.410Z,65.90
2022-12-07T20:31:15.360Z,66.10
2022-12-07T20:33:46.649Z,66.20
2022-12-07T20:36:15.667Z,66.20
2022-12-07T20:38:43.372Z,66.30
2022-12-07T20:41:32.213Z,66.30
2022-12-07T20:44:00.685Z,66.20
2022-12-07T20:46:27.997Z,66.20
2022-12-07T20:48:57.469Z,66.40
2022-12-07T20:51:24.375Z,66.60
2022-12-07T20:53:51.308Z,66.50
2022-12-07T20:56:20.465Z,66.30
2022-12-07T20:58:47.467Z,66.20
2022-12-07T21:01:15.350Z,66.10
2022-12-07T21:03:43.678Z,66.30
2022-12-07T21:06:16.743Z,66.30
2022-12-07T21:08:51.125Z,66.20
2022-12-07T21:11:19.382Z,66.20
2022-12-07T21:13:46.388Z,66.10
2022-12-07T21:16:18.942Z,66.30
2022-12-07T21:18:48.066Z,66.30
2022-12-07T21:21:19.773Z,66.50
2022-12-07T21:23:53.561Z,66.60
2022-12-07T21:26:25.340Z,66.90
2022-12-07T21:28:52.956Z,66.90
2022-12-07T21:31:20.418Z,67.10
2022-12-07T21:33:47.837Z,67.10
2022-12-07T21:36:18.962Z,67.10
2022-12-07T21:38:45.992Z,67.10
2022-12-07T21:41:18.614Z,67.20
2022-12-07T21:43:46.627Z,67.20
2022-12-07T21:46:14.462Z,67.20
2022-12-07T21:48:41.569Z,67.10
2022-12-07T21:51:13.603Z,67.20
2022-12-07T21:53:42.200Z,67.40
2022-12-07T21:56:34.141Z,67.40
2022-12-07T21:59:21.423Z,67.40
2022-12-07T22:01:48.868Z,67.40
2022-12-07T22:04:26.268Z,67.40
2022-12-07T22:06:53.725Z,67.40
2022-12-07T22:09:23.308Z,67.00
2022-12-07T22:11:50.245Z,66.50
2022-12-07T22:14:35.802Z,66.10
2022-12-07T22:17:03.352Z,65.80
2022-12-07T22:19:30.182Z,65.60
2022-12-07T22:21:58.066Z,65.50
2022-12-07T22:24:25.601Z,65.40
2022-12-07T22:26:52.429Z,65.50
2022-12-07T22:29:19.470Z,65.80
2022-12-07T22:31:52.002Z,66.30
2022-12-07T22:34:20.477Z,66.80
2022-12-07T22:36:47.368Z,66.80
2022-12-07T22:39:14.210Z,66.90
2022-12-07T22:41:41.377Z,66.90
2022-12-07T22:44:09.050Z,66.60
2022-12-07T22:46:36.536Z,66.40
2022-12-07T22:49:04.243Z,66.10
2022-12-07T22:51:34.054Z,66.10
2022-12-07T22:54:02.750Z,65.90
2022-12-07T22:56:31.373Z,65.70
2022-12-07T22:59:01.393Z,65.70
2022-12-07T23:01:28.279Z,65.80
2022-12-07T23:03:55.299Z,65.70
2022-12-07T23:06:28.544Z,65.70
2022-12-07T23:09:04.411Z,66.30
2022-12-07T23:11:51.728Z,66.40
2022-12-07T23:14:25.983Z,66.40
2022-12-07T23:16:53.025Z,66.30
2022-12-07T23:19:19.833Z,66.50
2022-12-07T23:21:46.679Z,66.90
2022-12-07T23:24:15.252Z,67.10
2022-12-07T23:26:43.796Z,67.00
2022-12-07T23:29:16.917Z,66.90
2022-12-07T23:31:44.290Z,67.10
2022-12-07T23:34:11.313Z,67.20
2022-12-07T23:36:38.191Z,67.20
2022-12-07T23:39:05.249Z,67.20
2022-12-07T23:41:32.056Z,67.30
2022-12-07T23:44:00.952Z,67.30
2022-12-07T23:46:30.816Z,67.30
2022-12-07T23:48:59.952Z,67.40
2022-12-07T23:51:26.886Z,67.40
2022-12-07T23:53:54.804Z,67.40
2022-12-07T23:56:27.464Z,67.40
2022-12-07T23:58:55.467Z,67.50
